sensor_id;sensor_type;location;lat;lon;timestamp;pressure;altitude;pressure_sealevel;temperature;humidity
28008;BME280;15333;50.010;20.020;2023-04-03T00:01:31;99081.84;;;1.28;100.00
28008;BME280;15333;50.010;20.020;2023-04-03T00:04:31;99084.78;;;1.18;100.00
28008;BME280;15333;50.010;20.020;2023-04-03T00:07:32;99097.34;;;1.10;100.00
28008;BME280;15333;50.010;20.020;2023-04-03T00:10:34;99087.91;;;1.03;100.00
28008;BME280;15333;50.010;20.020;2023-04-03T00:13:36;99085.28;;;1.03;100.00
28008;BME280;15333;50.010;20.020;2023-04-03T00:16:36;99080.88;;;1.04;100.00
28008;BME280;15333;50.010;20.020;2023-04-03T00:19:38;99078.28;;;1.02;100.00
28008;BME280;15333;50.010;20.020;2023-04-03T00:22:38;99076.47;;;1.04;100.00
28008;BME280;15333;50.010;20.020;2023-04-03T00:25:40;99083.47;;;1.05;100.00
28008;BME280;15333;50.010;20.020;2023-04-03T00:28:41;99085.06;;;1.09;100.00
28008;BME280;15333;50.010;20.020;2023-04-03T00:31:42;99095.59;;;1.09;100.00
28008;BME280;15333;50.010;20.020;2023-04-03T00:34:43;99083.34;;;1.08;100.00
28008;BME280;15333;50.010;20.020;2023-04-03T00:37:45;99092.06;;;1.10;100.00
28008;BME280;15333;50.010;20.020;2023-04-03T00:40:49;99091.25;;;1.08;100.00
28008;BME280;15333;50.010;20.020;2023-04-03T00:43:50;99096.72;;;1.02;100.00
28008;BME280;15333;50.010;20.020;2023-04-03T00:46:51;99102.16;;;0.98;100.00
28008;BME280;15333;50.010;20.020;2023-04-03T00:49:53;99110.28;;;0.90;100.00
28008;BME280;15333;50.010;20.020;2023-04-03T00:52:54;99105.31;;;0.81;100.00
28008;BME280;15333;50.010;20.020;2023-04-03T00:55:56;99110.00;;;0.71;100.00
28008;BME280;15333;50.010;20.020;2023-04-03T00:59:04;99103.88;;;0.71;100.00
28008;BME280;15333;50.010;20.020;2023-04-03T01:02:07;99106.53;;;0.71;100.00
28008;BME280;15333;50.010;20.020;2023-04-03T01:05:08;99119.84;;;0.65;100.00
28008;BME280;15333;50.010;20.020;2023-04-03T01:08:11;99113.88;;;0.60;100.00
28008;BME280;15333;50.010;20.020;2023-04-03T01:11:12;99115.69;;;0.58;100.00
28008;BME280;15333;50.010;20.020;2023-04-03T01:14:14;99120.22;;;0.53;100.00
28008;BME280;15333;50.010;20.020;2023-04-03T01:17:36;99123.00;;;0.48;100.00
28008;BME280;15333;50.010;20.020;2023-04-03T01:27:13;99125.94;;;0.37;100.00
28008;BME280;15333;50.010;20.020;2023-04-03T01:30:18;99131.22;;;0.37;100.00
28008;BME280;15333;50.010;20.020;2023-04-03T01:33:19;99134.75;;;0.36;100.00
28008;BME280;15333;50.010;20.020;2023-04-03T01:36:25;99134.03;;;0.31;100.00
28008;BME280;15333;50.010;20.020;2023-04-03T01:39:26;99145.50;;;0.29;100.00
28008;BME280;15333;50.010;20.020;2023-04-03T01:42:27;99131.38;;;0.31;100.00
28008;BME280;15333;50.010;20.020;2023-04-03T01:45:28;99139.41;;;0.28;100.00
28008;BME280;15333;50.010;20.020;2023-04-03T01:48:29;99140.16;;;0.32;100.00
28008;BME280;15333;50.010;20.020;2023-04-03T01:51:30;99145.38;;;0.33;100.00
28008;BME280;15333;50.010;20.020;2023-04-03T01:54:31;99144.47;;;0.34;100.00
28008;BME280;15333;50.010;20.020;2023-04-03T01:57:33;99140.97;;;0.34;100.00
28008;BME280;15333;50.010;20.020;2023-04-03T02:00:33;99138.38;;;0.32;100.00
28008;BME280;15333;50.010;20.020;2023-04-03T02:03:35;99138.31;;;0.35;100.00
28008;BME280;15333;50.010;20.020;2023-04-03T02:06:36;99161.19;;;0.33;100.00
28008;BME280;15333;50.010;20.020;2023-04-03T02:09:37;99154.19;;;0.32;100.00
28008;BME280;15333;50.010;20.020;2023-04-03T02:12:37;99147.09;;;0.34;100.00
28008;BME280;15333;50.010;20.020;2023-04-03T02:15:39;99146.94;;;0.41;100.00
28008;BME280;15333;50.010;20.020;2023-04-03T02:18:40;99149.63;;;0.37;100.00
28008;BME280;15333;50.010;20.020;2023-04-03T02:21:41;99145.13;;;0.43;100.00
28008;BME280;15333;50.010;20.020;2023-04-03T02:24:42;99147.75;;;0.43;100.00
28008;BME280;15333;50.010;20.020;2023-04-03T02:27:43;99145.00;;;0.46;100.00
28008;BME280;15333;50.010;20.020;2023-04-03T02:30:44;99155.53;;;0.46;100.00
28008;BME280;15333;50.010;20.020;2023-04-03T02:33:45;99154.66;;;0.47;100.00
28008;BME280;15333;50.010;20.020;2023-04-03T02:36:48;99156.44;;;0.45;100.00
28008;BME280;15333;50.010;20.020;2023-04-03T02:39:51;99158.09;;;0.49;100.00
28008;BME280;15333;50.010;20.020;2023-04-03T02:42:52;99159.09;;;0.45;100.00
28008;BME280;15333;50.010;20.020;2023-04-03T02:45:54;99162.63;;;0.44;100.00
28008;BME280;15333;50.010;20.020;2023-04-03T02:48:55;99162.72;;;0.41;100.00
28008;BME280;15333;50.010;20.020;2023-04-03T02:51:56;99168.97;;;0.36;100.00
28008;BME280;15333;50.010;20.020;2023-04-03T02:54:57;99164.63;;;0.35;100.00
28008;BME280;15333;50.010;20.020;2023-04-03T02:57:58;99172.59;;;0.32;100.00
28008;BME280;15333;50.010;20.020;2023-04-03T03:00:59;99176.97;;;0.33;100.00
28008;BME280;15333;50.010;20.020;2023-04-03T03:04:00;99175.25;;;0.32;100.00
28008;BME280;15333;50.010;20.020;2023-04-03T03:07:02;99175.25;;;0.32;100.00
28008;BME280;15333;50.010;20.020;2023-04-03T03:10:03;99178.78;;;0.31;100.00
28008;BME280;15333;50.010;20.020;2023-04-03T03:13:04;99180.50;;;0.32;100.00
28008;BME280;15333;50.010;20.020;2023-04-03T03:16:06;99180.56;;;0.29;100.00
28008;BME280;15333;50.010;20.020;2023-04-03T03:19:07;99170.16;;;0.26;100.00
28008;BME280;15333;50.010;20.020;2023-04-03T03:22:08;99184.22;;;0.25;100.00
28008;BME280;15333;50.010;20.020;2023-04-03T03:25:09;99184.22;;;0.25;100.00
28008;BME280;15333;50.010;20.020;2023-04-03T03:28:11;99186.88;;;0.24;100.00
28008;BME280;15333;50.010;20.020;2023-04-03T03:31:12;99185.16;;;0.23;100.00
28008;BME280;15333;50.010;20.020;2023-04-03T03:34:15;99182.47;;;0.24;100.00
28008;BME280;15333;50.010;20.020;2023-04-03T03:37:15;99185.06;;;0.26;100.00
28008;BME280;15333;50.010;20.020;2023-04-03T03:40:17;99183.16;;;0.31;100.00
28008;BME280;15333;50.010;20.020;2023-04-03T03:43:18;99184.22;;;0.25;100.00
28008;BME280;15333;50.010;20.020;2023-04-03T03:46:21;99189.53;;;0.22;100.00
28008;BME280;15333;50.010;20.020;2023-04-03T03:49:22;99194.75;;;0.25;100.00
28008;BME280;15333;50.010;20.020;2023-04-03T03:52:23;99189.47;;;0.25;100.00
28008;BME280;15333;50.010;20.020;2023-04-03T03:55:24;99194.00;;;0.20;100.00
28008;BME280;15333;50.010;20.020;2023-04-03T03:58:28;99191.28;;;0.23;100.00
28008;BME280;15333;50.010;20.020;2023-04-03T04:01:29;99196.66;;;0.20;100.00
28008;BME280;15333;50.010;20.020;2023-04-03T04:04:31;99203.63;;;0.21;100.00
28008;BME280;15333;50.010;20.020;2023-04-03T04:07:32;99215.00;;;0.22;100.00
28008;BME280;15333;50.010;20.020;2023-04-03T04:10:35;99214.22;;;0.18;100.00
28008;BME280;15333;50.010;20.020;2023-04-03T04:13:37;99207.25;;;0.17;100.00
28008;BME280;15333;50.010;20.020;2023-04-03T04:16:39;99215.97;;;0.19;100.00
28008;BME280;15333;50.010;20.020;2023-04-03T04:19:45;99212.59;;;0.14;100.00
28008;BME280;15333;50.010;20.020;2023-04-03T04:22:46;99209.91;;;0.16;100.00
28008;BME280;15333;50.010;20.020;2023-04-03T04:25:48;99225.97;;;0.07;100.00
28008;BME280;15333;50.010;20.020;2023-04-03T04:28:49;99225.16;;;0.03;100.00
28008;BME280;15333;50.010;20.020;2023-04-03T04:31:52;99221.69;;;0.01;100.00
28008;BME280;15333;50.010;20.020;2023-04-03T04:34:53;99225.25;;;0.00;100.00
28008;BME280;15333;50.010;20.020;2023-04-03T04:37:54;99220.00;;;0.00;100.00
28008;BME280;15333;50.010;20.020;2023-04-03T04:40:56;99225.16;;;0.03;100.00
28008;BME280;15333;50.010;20.020;2023-04-03T04:43:57;99241.13;;;-0.03;100.00
28008;BME280;15333;50.010;20.020;2023-04-03T04:46:59;99235.91;;;-0.06;100.00
28008;BME280;15333;50.010;20.020;2023-04-03T04:50:01;99231.69;;;-0.12;100.00
28008;BME280;15333;50.010;20.020;2023-04-03T04:53:03;99229.88;;;-0.10;100.00
28008;BME280;15333;50.010;20.020;2023-04-03T04:56:05;99237.81;;;-0.11;100.00
28008;BME280;15333;50.010;20.020;2023-04-03T04:59:08;99246.69;;;-0.15;100.00
28008;BME280;15333;50.010;20.020;2023-04-03T05:02:09;99246.75;;;-0.18;100.00
28008;BME280;15333;50.010;20.020;2023-04-03T05:05:12;99250.13;;;-0.13;100.00
28008;BME280;15333;50.010;20.020;2023-04-03T05:08:13;99246.59;;;-0.12;100.00
28008;BME280;15333;50.010;20.020;2023-04-03T05:11:16;99255.50;;;-0.16;100.00
28008;BME280;15333;50.010;20.020;2023-04-03T05:14:18;99260.59;;;-0.10;100.00
28008;BME280;15333;50.010;20.020;2023-04-03T05:17:20;99255.31;;;-0.10;100.00
28008;BME280;15333;50.010;20.020;2023-04-03T05:20:25;99254.63;;;-0.17;100.00
28008;BME280;15333;50.010;20.020;2023-04-03T05:23:26;99266.00;;;-0.16;100.00
28008;BME280;15333;50.010;20.020;2023-04-03T05:26:31;99250.31;;;-0.21;100.00
28008;BME280;15333;50.010;20.020;2023-04-03T05:29:33;99259.00;;;-0.17;100.00
28008;BME280;15333;50.010;20.020;2023-04-03T05:32:35;99273.00;;;-0.15;100.00
28008;BME280;15333;50.010;20.020;2023-04-03T05:35:53;99269.53;;;-0.17;100.00
28008;BME280;15333;50.010;20.020;2023-04-03T05:38:58;99269.44;;;-0.14;100.00
28008;BME280;15333;50.010;20.020;2023-04-03T05:42:00;99267.75;;;-0.15;100.00
28008;BME280;15333;50.010;20.020;2023-04-03T05:45:02;99273.00;;;-0.15;100.00
28008;BME280;15333;50.010;20.020;2023-04-03T05:48:03;99274.69;;;-0.14;100.00
28008;BME280;15333;50.010;20.020;2023-04-03T05:51:05;99280.88;;;-0.15;100.00
28008;BME280;15333;50.010;20.020;2023-04-03T05:54:17;99276.44;;;-0.13;100.00
28008;BME280;15333;50.010;20.020;2023-04-03T05:57:19;99276.59;;;-0.19;100.00
28008;BME280;15333;50.010;20.020;2023-04-03T06:00:20;99285.47;;;-0.23;100.00
28008;BME280;15333;50.010;20.020;2023-04-03T06:03:30;99278.44;;;-0.23;100.00
28008;BME280;15333;50.010;20.020;2023-04-03T06:06:52;99289.94;;;-0.28;100.00
28008;BME280;15333;50.010;20.020;2023-04-03T06:09:55;99286.59;;;-0.35;100.00
28008;BME280;15333;50.010;20.020;2023-04-03T06:12:57;99292.66;;;-0.31;100.00
28008;BME280;15333;50.010;20.020;2023-04-03T06:15:57;99293.63;;;-0.35;100.00
28008;BME280;15333;50.010;20.020;2023-04-03T06:18:59;99304.03;;;-0.29;100.00
28008;BME280;15333;50.010;20.020;2023-04-03T06:22:00;99311.94;;;-0.31;100.00
28008;BME280;15333;50.010;20.020;2023-04-03T06:25:01;99304.84;;;-0.27;100.00
28008;BME280;15333;50.010;20.020;2023-04-03T06:28:02;99311.69;;;-0.20;100.00
28008;BME280;15333;50.010;20.020;2023-04-03T06:31:03;99316.31;;;-0.30;100.00
28008;BME280;15333;50.010;20.020;2023-04-03T06:34:04;99315.34;;;-0.27;100.00
28008;BME280;15333;50.010;20.020;2023-04-03T06:37:27;99311.75;;;-0.22;100.00
28008;BME280;15333;50.010;20.020;2023-04-03T06:40:29;99312.69;;;-0.26;100.00
28008;BME280;15333;50.010;20.020;2023-04-03T06:43:31;99316.00;;;-0.18;100.00
28008;BME280;15333;50.010;20.020;2023-04-03T06:46:32;99322.13;;;-0.17;100.00
28008;BME280;15333;50.010;20.020;2023-04-03T06:49:33;99325.44;;;-0.09;100.00
28008;BME280;15333;50.010;20.020;2023-04-03T06:52:34;99322.84;;;-0.11;100.00
28008;BME280;15333;50.010;20.020;2023-04-03T06:55:35;99334.09;;;-0.04;100.00
28008;BME280;15333;50.010;20.020;2023-04-03T06:58:36;99304.94;;;0.05;100.00
28008;BME280;15333;50.010;20.020;2023-04-03T07:01:37;99321.28;;;0.16;100.00
28008;BME280;15333;50.010;20.020;2023-04-03T07:04:38;99328.22;;;0.20;100.00
28008;BME280;15333;50.010;20.020;2023-04-03T07:07:39;99333.56;;;0.17;100.00
28008;BME280;15333;50.010;20.020;2023-04-03T07:10:40;99326.50;;;0.19;100.00
28008;BME280;15333;50.010;20.020;2023-04-03T07:13:42;99332.47;;;0.26;100.00
28008;BME280;15333;50.010;20.020;2023-04-03T07:16:43;99325.44;;;0.26;100.00
28008;BME280;15333;50.010;20.020;2023-04-03T07:19:44;99347.41;;;0.25;100.00
28008;BME280;15333;50.010;20.020;2023-04-03T07:22:44;99352.50;;;0.31;99.34
28008;BME280;15333;50.010;20.020;2023-04-03T07:25:47;99342.06;;;0.28;97.84
28008;BME280;15333;50.010;20.020;2023-04-03T07:28:48;99353.22;;;0.36;99.34
28008;BME280;15333;50.010;20.020;2023-04-03T07:31:49;99353.75;;;0.51;96.31
28008;BME280;15333;50.010;20.020;2023-04-03T07:34:50;99369.47;;;0.54;95.99
28008;BME280;15333;50.010;20.020;2023-04-03T07:37:51;99357.97;;;0.90;95.75
28008;BME280;15333;50.010;20.020;2023-04-03T07:40:52;99366.59;;;0.95;93.26
28008;BME280;15333;50.010;20.020;2023-04-03T07:43:53;99365.22;;;1.13;89.88
28008;BME280;15333;50.010;20.020;2023-04-03T07:46:55;99379.03;;;0.90;88.57
28008;BME280;15333;50.010;20.020;2023-04-03T07:49:57;99373.53;;;0.99;89.65
28008;BME280;15333;50.010;20.020;2023-04-03T07:52:58;99367.09;;;1.08;90.49
28008;BME280;15333;50.010;20.020;2023-04-03T07:55:59;99374.97;;;1.09;88.62
28008;BME280;15333;50.010;20.020;2023-04-03T07:59:00;99375.56;;;0.88;88.05
28008;BME280;15333;50.010;20.020;2023-04-03T08:02:02;99369.97;;;0.68;86.90
28008;BME280;15333;50.010;20.020;2023-04-03T08:05:05;99376.16;;;0.67;87.70
28008;BME280;15333;50.010;20.020;2023-04-03T08:08:07;99383.84;;;0.74;86.75
28008;BME280;15333;50.010;20.020;2023-04-03T08:11:09;99376.09;;;1.01;87.80
28008;BME280;15333;50.010;20.020;2023-04-03T08:14:12;99385.34;;;1.15;88.24
28008;BME280;15333;50.010;20.020;2023-04-03T08:17:16;99382.56;;;0.89;87.61
28008;BME280;15333;50.010;20.020;2023-04-03T08:20:18;99387.84;;;0.89;87.77
28008;BME280;15333;50.010;20.020;2023-04-03T08:23:19;99384.91;;;1.00;88.61
28008;BME280;15333;50.010;20.020;2023-04-03T08:26:21;99386.97;;;0.89;87.84
28008;BME280;15333;50.010;20.020;2023-04-03T08:29:22;99394.31;;;0.77;87.85
28008;BME280;15333;50.010;20.020;2023-04-03T08:32:24;99397.06;;;0.73;89.19
28008;BME280;15333;50.010;20.020;2023-04-03T08:35:24;99389.81;;;0.81;88.95
28008;BME280;15333;50.010;20.020;2023-04-03T08:38:26;99398.94;;;0.68;89.04
28008;BME280;15333;50.010;20.020;2023-04-03T08:44:55;99386.34;;;0.79;90.58
28008;BME280;15333;50.010;20.020;2023-04-03T08:48:00;99402.09;;;0.82;90.17
28008;BME280;15333;50.010;20.020;2023-04-03T08:51:25;99413.53;;;0.81;91.37
28008;BME280;15333;50.010;20.020;2023-04-03T08:54:30;99402.72;;;0.92;91.34
28008;BME280;15333;50.010;20.020;2023-04-03T08:57:36;99413.06;;;0.65;91.77
28008;BME280;15333;50.010;20.020;2023-04-03T09:03:52;99416.16;;;0.47;91.00
28008;BME280;15333;50.010;20.020;2023-04-03T09:06:57;99413.41;;;0.52;91.86
28008;BME280;15333;50.010;20.020;2023-04-03T09:10:00;99423.31;;;0.76;92.51
28008;BME280;15333;50.010;20.020;2023-04-03T09:19:48;99431.31;;;0.71;90.31
28008;BME280;15333;50.010;20.020;2023-04-03T09:22:52;99423.31;;;0.76;89.92
28008;BME280;15333;50.010;20.020;2023-04-03T09:26:00;99431.31;;;0.37;92.82
28008;BME280;15333;50.010;20.020;2023-04-03T09:29:06;99434.31;;;0.58;94.32
28008;BME280;15333;50.010;20.020;2023-04-03T09:32:37;99444.19;;;0.14;96.67
28008;BME280;15333;50.010;20.020;2023-04-03T09:35:40;99460.09;;;0.08;98.57
28008;BME280;15333;50.010;20.020;2023-04-03T09:38:41;99468.09;;;0.04;100.00
28008;BME280;15333;50.010;20.020;2023-04-03T09:42:01;99472.97;;;0.20;100.00
28008;BME280;15333;50.010;20.020;2023-04-03T09:45:04;99470.59;;;0.08;100.00
28008;BME280;15333;50.010;20.020;2023-04-03T09:51:15;99471.75;;;-0.04;100.00
28008;BME280;15333;50.010;20.020;2023-04-03T09:54:33;99476.34;;;-0.13;100.00
28008;BME280;15333;50.010;20.020;2023-04-03T09:57:38;99481.47;;;-0.07;100.00
28008;BME280;15333;50.010;20.020;2023-04-03T10:00:39;99478.28;;;0.19;100.00
28008;BME280;15333;50.010;20.020;2023-04-03T10:03:40;99485.25;;;0.21;100.00
28008;BME280;15333;50.010;20.020;2023-04-03T10:06:56;99480.78;;;0.23;98.63
28008;BME280;15333;50.010;20.020;2023-04-03T10:09:59;99476.72;;;0.47;97.13
28008;BME280;15333;50.010;20.020;2023-04-03T10:16:14;99485.28;;;0.57;94.43
28008;BME280;15333;50.010;20.020;2023-04-03T10:26:23;99485.56;;;0.45;94.32
28008;BME280;15333;50.010;20.020;2023-04-03T10:42:55;99472.06;;;1.26;84.40
28008;BME280;15333;50.010;20.020;2023-04-03T10:49:33;99484.03;;;1.05;86.16
28008;BME280;15333;50.010;20.020;2023-04-03T10:58:57;99480.34;;;1.12;84.81
28008;BME280;15333;50.010;20.020;2023-04-03T11:02:01;99481.13;;;1.14;84.59
28008;BME280;15333;50.010;20.020;2023-04-03T11:05:18;99485.09;;;0.98;84.67
28008;BME280;15333;50.010;20.020;2023-04-03T11:11:39;99479.69;;;1.04;86.46
28008;BME280;15333;50.010;20.020;2023-04-03T11:14:41;99492.69;;;1.10;86.92
28008;BME280;15333;50.010;20.020;2023-04-03T11:17:48;99488.91;;;1.21;85.07
28008;BME280;15333;50.010;20.020;2023-04-03T11:21:04;99493.31;;;1.20;84.54
28008;BME280;15333;50.010;20.020;2023-04-03T11:24:29;99490.63;;;1.22;83.23
28008;BME280;15333;50.010;20.020;2023-04-03T11:27:58;99485.00;;;1.66;82.00
28008;BME280;15333;50.010;20.020;2023-04-03T11:31:12;99480.44;;;1.71;79.21
28008;BME280;15333;50.010;20.020;2023-04-03T11:34:33;99499.22;;;1.91;78.17
28008;BME280;15333;50.010;20.020;2023-04-03T11:37:43;99489.72;;;2.14;77.66
28008;BME280;15333;50.010;20.020;2023-04-03T11:40:46;99466.97;;;2.10;77.29
28008;BME280;15333;50.010;20.020;2023-04-03T11:44:00;99469.81;;;1.74;78.31
28008;BME280;15333;50.010;20.020;2023-04-03T11:47:01;99475.22;;;1.99;80.45
28008;BME280;15333;50.010;20.020;2023-04-03T11:50:04;99481.09;;;2.09;78.35
28008;BME280;15333;50.010;20.020;2023-04-03T11:59:26;99472.78;;;2.49;73.63
28008;BME280;15333;50.010;20.020;2023-04-03T12:02:37;99475.25;;;2.27;72.29
28008;BME280;15333;50.010;20.020;2023-04-03T12:05:38;99458.19;;;2.63;72.54
28008;BME280;15333;50.010;20.020;2023-04-03T12:11:40;99468.88;;;2.34;69.18
28008;BME280;15333;50.010;20.020;2023-04-03T12:14:41;99462.41;;;2.43;70.17
28008;BME280;15333;50.010;20.020;2023-04-03T12:17:43;99460.50;;;2.48;72.02
28008;BME280;15333;50.010;20.020;2023-04-03T12:20:57;99476.97;;;2.28;71.50
28008;BME280;15333;50.010;20.020;2023-04-03T12:27:17;99465.91;;;2.15;69.74
28008;BME280;15333;50.010;20.020;2023-04-03T12:30:25;99469.59;;;2.39;70.35
28008;BME280;15333;50.010;20.020;2023-04-03T12:34:11;99477.25;;;2.19;65.07
28008;BME280;15333;50.010;20.020;2023-04-03T12:40:21;99467.44;;;2.50;63.00
28008;BME280;15333;50.010;20.020;2023-04-03T12:46:51;99464.09;;;2.71;63.04
28008;BME280;15333;50.010;20.020;2023-04-03T12:49:53;99457.56;;;3.08;62.52
28008;BME280;15333;50.010;20.020;2023-04-03T12:52:59;99464.41;;;2.89;61.36
28008;BME280;15333;50.010;20.020;2023-04-03T12:56:27;99464.94;;;3.73;58.12
28008;BME280;15333;50.010;20.020;2023-04-03T12:59:28;99464.81;;;3.03;58.24
28008;BME280;15333;50.010;20.020;2023-04-03T13:02:31;99467.53;;;3.00;57.75
28008;BME280;15333;50.010;20.020;2023-04-03T13:05:34;99493.38;;;2.65;59.01
28008;BME280;15333;50.010;20.020;2023-04-03T13:08:35;99467.66;;;2.44;60.05
28008;BME280;15333;50.010;20.020;2023-04-03T13:11:38;99476.19;;;2.52;61.11
28008;BME280;15333;50.010;20.020;2023-04-03T13:14:51;99464.59;;;2.84;58.57
28008;BME280;15333;50.010;20.020;2023-04-03T13:17:53;99467.22;;;2.84;59.26
28008;BME280;15333;50.010;20.020;2023-04-03T13:21:13;99468.19;;;2.82;59.71
28008;BME280;15333;50.010;20.020;2023-04-03T13:24:15;99451.22;;;3.38;57.35
28008;BME280;15333;50.010;20.020;2023-04-03T13:27:16;99465.41;;;3.11;54.61
28008;BME280;15333;50.010;20.020;2023-04-03T13:30:26;99454.28;;;3.01;56.48
28008;BME280;15333;50.010;20.020;2023-04-03T13:33:30;99467.31;;;2.81;58.23
28008;BME280;15333;50.010;20.020;2023-04-03T13:36:34;99459.63;;;2.73;58.31
28008;BME280;15333;50.010;20.020;2023-04-03T13:39:38;99466.66;;;2.74;59.07
28008;BME280;15333;50.010;20.020;2023-04-03T13:42:41;99465.41;;;2.85;59.12
28008;BME280;15333;50.010;20.020;2023-04-03T13:46:04;99460.34;;;3.05;58.03
28008;BME280;15333;50.010;20.020;2023-04-03T13:49:21;99473.25;;;2.88;56.62
28008;BME280;15333;50.010;20.020;2023-04-03T13:52:32;99460.88;;;3.39;57.47
28008;BME280;15333;50.010;20.020;2023-04-03T13:56:05;99466.75;;;3.47;54.90
28008;BME280;15333;50.010;20.020;2023-04-03T14:02:34;99455.38;;;3.92;54.72
28008;BME280;15333;50.010;20.020;2023-04-03T14:05:35;99460.91;;;3.86;54.43
28008;BME280;15333;50.010;20.020;2023-04-03T14:08:36;99460.56;;;3.72;56.27
28008;BME280;15333;50.010;20.020;2023-04-03T14:11:37;99457.56;;;3.58;55.72
28008;BME280;15333;50.010;20.020;2023-04-03T14:14:38;99460.22;;;3.81;56.65
28008;BME280;15333;50.010;20.020;2023-04-03T14:17:40;99463.47;;;3.16;57.94
28008;BME280;15333;50.010;20.020;2023-04-03T14:20:43;99462.47;;;2.94;58.55
28008;BME280;15333;50.010;20.020;2023-04-03T14:23:45;99466.44;;;2.81;59.94
28008;BME280;15333;50.010;20.020;2023-04-03T14:26:48;99467.66;;;2.97;60.63
28008;BME280;15333;50.010;20.020;2023-04-03T14:29:51;99463.63;;;2.85;59.07
28008;BME280;15333;50.010;20.020;2023-04-03T14:32:52;99459.97;;;2.91;59.46
28008;BME280;15333;50.010;20.020;2023-04-03T14:35:53;99463.03;;;3.28;59.41
28008;BME280;15333;50.010;20.020;2023-04-03T14:38:55;99448.41;;;3.66;57.66
28008;BME280;15333;50.010;20.020;2023-04-03T14:41:56;99450.47;;;3.58;57.99
28008;BME280;15333;50.010;20.020;2023-04-03T14:44:59;99446.28;;;3.28;58.71
28008;BME280;15333;50.010;20.020;2023-04-03T14:48:00;99444.59;;;3.27;59.39
28008;BME280;15333;50.010;20.020;2023-04-03T14:51:03;99450.34;;;3.13;58.71
28008;BME280;15333;50.010;20.020;2023-04-03T14:54:05;99437.88;;;2.92;58.79
28008;BME280;15333;50.010;20.020;2023-04-03T14:57:09;99444.78;;;2.96;59.31
28008;BME280;15333;50.010;20.020;2023-04-03T15:00:18;99449.06;;;2.73;59.49
28008;BME280;15333;50.010;20.020;2023-04-03T15:03:21;99446.50;;;2.70;59.29
28008;BME280;15333;50.010;20.020;2023-04-03T15:06:24;99447.25;;;3.00;59.11
28008;BME280;15333;50.010;20.020;2023-04-03T15:09:26;99450.38;;;2.87;58.98
28008;BME280;15333;50.010;20.020;2023-04-03T15:12:28;99453.31;;;3.04;59.03
28008;BME280;15333;50.010;20.020;2023-04-03T15:15:29;99445.56;;;3.24;58.29
28008;BME280;15333;50.010;20.020;2023-04-03T15:18:34;99455.66;;;2.87;59.31
28008;BME280;15333;50.010;20.020;2023-04-03T15:21:37;99449.38;;;3.15;58.34
28008;BME280;15333;50.010;20.020;2023-04-03T15:24:38;99442.38;;;2.90;58.00
28008;BME280;15333;50.010;20.020;2023-04-03T15:27:39;99446.34;;;2.77;57.86
28008;BME280;15333;50.010;20.020;2023-04-03T15:30:40;99445.81;;;2.65;57.73
28008;BME280;15333;50.010;20.020;2023-04-03T15:33:42;99443.38;;;2.86;57.45
28008;BME280;15333;50.010;20.020;2023-04-03T15:36:42;99438.28;;;2.80;57.61
28008;BME280;15333;50.010;20.020;2023-04-03T15:39:43;99442.06;;;2.72;55.88
28008;BME280;15333;50.010;20.020;2023-04-03T15:42:44;99440.97;;;3.04;54.37
28008;BME280;15333;50.010;20.020;2023-04-03T15:45:45;99438.75;;;3.17;55.24
28008;BME280;15333;50.010;20.020;2023-04-03T15:48:46;99449.44;;;3.14;55.76
28008;BME280;15333;50.010;20.020;2023-04-03T15:51:47;99438.63;;;3.20;55.59
28008;BME280;15333;50.010;20.020;2023-04-03T15:54:48;99444.56;;;3.02;56.12
28008;BME280;15333;50.010;20.020;2023-04-03T15:57:49;99441.75;;;2.82;57.17
28008;BME280;15333;50.010;20.020;2023-04-03T16:00:50;99440.09;;;2.78;56.77
28008;BME280;15333;50.010;20.020;2023-04-03T16:03:52;99435.38;;;2.62;55.72
28008;BME280;15333;50.010;20.020;2023-04-03T16:06:53;99437.06;;;2.63;54.96
28008;BME280;15333;50.010;20.020;2023-04-03T16:09:54;99432.19;;;2.51;54.86
28008;BME280;15333;50.010;20.020;2023-04-03T16:12:55;99433.94;;;2.52;54.54
28008;BME280;15333;50.010;20.020;2023-04-03T16:15:56;99437.28;;;2.57;54.54
28008;BME280;15333;50.010;20.020;2023-04-03T16:18:57;99433.84;;;2.55;54.93
28008;BME280;15333;50.010;20.020;2023-04-03T16:21:58;99445.16;;;2.59;55.56
28008;BME280;15333;50.010;20.020;2023-04-03T16:24:59;99445.56;;;2.47;55.81
28008;BME280;15333;50.010;20.020;2023-04-03T16:28:00;99457.09;;;2.44;55.15
28008;BME280;15333;50.010;20.020;2023-04-03T16:31:02;99447.22;;;2.49;56.74
28008;BME280;15333;50.010;20.020;2023-04-03T16:34:03;99444.03;;;2.40;56.35
28008;BME280;15333;50.010;20.020;2023-04-03T16:37:04;99446.53;;;2.44;56.32
28008;BME280;15333;50.010;20.020;2023-04-03T16:40:06;99446.94;;;2.58;56.54
28008;BME280;15333;50.010;20.020;2023-04-03T16:43:07;99447.84;;;2.57;56.18
28008;BME280;15333;50.010;20.020;2023-04-03T16:46:08;99442.75;;;2.51;56.12
28008;BME280;15333;50.010;20.020;2023-04-03T16:49:09;99453.81;;;2.36;55.73
28008;BME280;15333;50.010;20.020;2023-04-03T16:52:10;99452.41;;;2.26;55.94
28008;BME280;15333;50.010;20.020;2023-04-03T16:55:11;99457.97;;;2.17;56.56
28008;BME280;15333;50.010;20.020;2023-04-03T16:58:12;99459.97;;;2.09;57.86
28008;BME280;15333;50.010;20.020;2023-04-03T17:01:17;99459.22;;;2.05;58.03
28008;BME280;15333;50.010;20.020;2023-04-03T17:04:18;99463.63;;;2.05;57.94
28008;BME280;15333;50.010;20.020;2023-04-03T17:07:20;99461.97;;;2.01;58.58
28008;BME280;15333;50.010;20.020;2023-04-03T17:10:21;99470.78;;;2.00;58.93
28008;BME280;15333;50.010;20.020;2023-04-03T17:13:22;99462.78;;;2.03;59.96
28008;BME280;15333;50.010;20.020;2023-04-03T17:16:23;99462.16;;;1.94;58.25
28008;BME280;15333;50.010;20.020;2023-04-03T17:19:25;99465.81;;;1.90;59.30
28008;BME280;15333;50.010;20.020;2023-04-03T17:22:28;99471.16;;;1.87;58.93
28008;BME280;15333;50.010;20.020;2023-04-03T17:25:29;99480.84;;;1.87;59.55